Time;durP1;ratioP1;P1;durP2;ratioP2;P2;SDS_P1;SDS_P2;PMS_P1;PMS_P2;Temp;Humidity;BMP_temperature;BMP_pressure;BME280_temperature;BME280_humidity;BME280_pressure;Samples;Min_cycle;Max_cycle;Signal;HPM_P1;HPM_P2
2021/04/16 00:04:41;;;;;;;0.50;0.47;;;13.00;99.90;;;;;;20830063;28;20661;-75
2021/04/16 00:15:20;;;;;;;0.63;0.43;;;12.80;99.90;;;;;;20821348;23;20234;-76
2021/04/16 00:25:29;;;;;;;1.07;0.70;;;12.90;99.90;;;;;;20657104;28;20227;-78
2021/04/16 00:35:32;;;;;;;3.80;1.50;;;12.80;99.90;;;;;;20638271;28;20195;-76
2021/04/16 00:57:13;;;;;;;1.43;1.07;;;13.00;99.90;;;;;;20636116;28;20191;-76
2021/04/16 01:07:18;;;;;;;1.07;0.53;;;13.20;99.90;;;;;;20653104;28;20271;-75
2021/04/16 01:17:22;;;;;;;2.93;0.80;;;13.20;99.90;;;;;;20652411;28;20223;-77
2021/04/16 01:27:58;;;;;;;0.70;0.70;;;12.90;99.90;;;;;;20685093;23;20238;-78
2021/04/16 01:38:05;;;;;;;1.10;1.00;;;12.80;99.90;;;;;;20826540;28;20198;-74
2021/04/16 01:48:08;;;;;;;0.90;0.90;;;12.70;99.90;;;;;;20878351;28;20290;-75
2021/04/16 01:58:12;;;;;;;1.80;1.30;;;12.40;99.90;;;;;;20876501;28;20237;-77
2021/04/16 02:08:14;;;;;;;0.53;0.53;;;12.30;99.90;;;;;;20795264;28;20555;-75
2021/04/16 02:18:19;;;;;;;0.40;0.40;;;12.20;99.90;;;;;;20812682;28;20861;-76
2021/04/16 02:28:22;;;;;;;0.80;0.47;;;12.10;99.90;;;;;;20811758;28;20242;-76
2021/04/16 02:38:25;;;;;;;2.03;1.47;;;12.00;99.90;;;;;;20831991;28;20194;-74
2021/04/16 02:48:28;;;;;;;0.73;0.43;;;12.00;99.90;;;;;;20893537;28;20308;-73
2021/04/16 02:58:32;;;;;;;0.70;0.70;;;12.10;99.90;;;;;;20849411;28;20237;-74
2021/04/16 03:08:35;;;;;;;0.50;0.50;;;12.10;99.90;;;;;;20717062;23;20701;-76
2021/04/16 03:18:38;;;;;;;0.83;0.80;;;12.20;99.90;;;;;;20661055;28;20222;-76
2021/04/16 03:28:41;;;;;;;4.57;1.07;;;12.00;99.90;;;;;;20643102;28;20414;-75
2021/04/16 03:38:45;;;;;;;1.50;0.80;;;12.00;99.90;;;;;;20658934;28;20704;-74
2021/04/16 03:48:48;;;;;;;1.57;1.13;;;12.00;99.90;;;;;;20659871;28;20219;-75
2021/04/16 03:58:53;;;;;;;1.13;0.70;;;12.10;99.90;;;;;;20658137;28;20203;-79
2021/04/16 04:08:55;;;;;;;1.53;0.70;;;12.40;99.90;;;;;;20739227;28;20230;-80
2021/04/16 04:19:18;;;;;;;2.87;1.17;;;12.30;99.90;;;;;;20722619;28;20206;-80
2021/04/16 04:29:24;;;;;;;1.30;0.80;;;12.10;99.90;;;;;;20737639;28;20281;-79
2021/04/16 04:39:29;;;;;;;0.60;0.50;;;12.20;99.90;;;;;;20839978;23;20969;-79
2021/04/16 04:49:33;;;;;;;0.20;0.20;;;12.30;99.90;;;;;;20767465;28;20225;-78
2021/04/16 04:59:37;;;;;;;0.30;0.27;;;12.20;99.90;;;;;;20817527;28;20202;-78
2021/04/16 05:09:39;;;;;;;0.57;0.57;;;12.10;99.90;;;;;;20782025;28;20268;-79
2021/04/16 05:20:01;;;;;;;0.30;0.30;;;12.10;99.90;;;;;;20806760;28;20224;-84
2021/04/16 05:30:06;;;;;;;0.67;0.67;;;12.40;99.90;;;;;;20782751;28;20312;-81
2021/04/16 05:40:22;;;;;;;0.90;0.60;;;12.40;99.90;;;;;;20830884;28;20231;-79
2021/04/16 05:50:25;;;;;;;0.50;0.50;;;12.30;99.90;;;;;;20859117;28;20324;-79
2021/04/16 06:00:52;;;;;;;0.37;0.30;;;12.50;99.90;;;;;;20852984;28;20252;-78
2021/04/16 06:11:28;;;;;;;1.03;0.93;;;12.40;99.90;;;;;;20789561;28;20233;-78
2021/04/16 06:21:32;;;;;;;0.87;0.20;;;12.60;99.90;;;;;;20776074;28;20268;-80
2021/04/16 06:31:35;;;;;;;0.60;0.40;;;12.70;99.90;;;;;;20822858;28;20280;-77
2021/04/16 06:41:53;;;;;;;0.47;0.47;;;12.80;99.90;;;;;;20873443;28;20221;-73
2021/04/16 06:52:04;;;;;;;0.67;0.30;;;12.90;99.90;;;;;;20907770;28;20252;-75
2021/04/16 07:02:11;;;;;;;0.70;0.70;;;12.80;99.90;;;;;;20906543;28;20197;-76
2021/04/16 07:23:43;;;;;;;0.43;0.40;;;13.20;99.90;;;;;;20794570;23;20266;-77
2021/04/16 08:10:43;;;;;;;0.40;0.33;;;14.30;99.90;;;;;;20921464;28;20544;-71
2021/04/16 08:20:58;;;;;;;1.00;0.70;;;14.10;99.90;;;;;;20920255;28;20564;-71
2021/04/16 08:31:06;;;;;;;1.47;0.67;;;13.90;99.90;;;;;;20925027;28;20345;-72
2021/04/16 08:41:17;;;;;;;1.23;1.10;;;13.40;99.90;;;;;;20921115;28;20728;-74
2021/04/16 08:51:30;;;;;;;0.43;0.43;;;13.50;99.90;;;;;;20919153;28;20211;-73
2021/04/16 09:01:37;;;;;;;0.27;0.27;;;13.60;99.90;;;;;;20951989;28;20228;-76
2021/04/16 09:12:02;;;;;;;0.53;0.50;;;13.80;99.90;;;;;;20864904;28;20332;-73
2021/04/16 09:22:48;;;;;;;2.13;0.73;;;14.00;99.90;;;;;;20839223;28;20766;-74
2021/04/16 09:32:53;;;;;;;1.53;1.17;;;14.10;99.90;;;;;;20865282;28;20921;-72
2021/04/16 09:42:58;;;;;;;0.40;0.40;;;14.70;99.90;;;;;;20861215;28;20217;-72
2021/04/16 09:53:23;;;;;;;0.60;0.60;;;14.90;99.90;;;;;;20861475;28;20772;-70
2021/04/16 10:03:46;;;;;;;1.63;0.50;;;16.40;99.90;;;;;;20860130;28;20734;-70
2021/04/16 10:13:53;;;;;;;0.33;0.33;;;16.80;99.90;;;;;;20859902;28;20197;-72
2021/04/16 10:24:33;;;;;;;11.63;0.97;;;16.80;99.90;;;;;;20858919;28;20221;-69
2021/04/16 12:39:14;;;;;;;4.90;0.83;;;20.20;99.90;;;;;;20852957;28;20633;-70
2021/04/16 12:49:17;;;;;;;1.17;0.60;;;18.20;99.90;;;;;;20864871;28;20672;-70
2021/04/16 12:59:24;;;;;;;1.80;0.70;;;17.70;99.90;;;;;;20866041;28;20225;-70
2021/04/16 13:09:27;;;;;;;2.40;1.17;;;20.90;99.90;;;;;;20864703;28;20503;-68
2021/04/16 13:19:34;;;;;;;1.83;1.67;;;21.80;99.90;;;;;;20863852;28;20280;-65
2021/04/16 13:29:37;;;;;;;1.23;0.50;;;20.00;99.90;;;;;;20862728;28;20656;-66
2021/04/16 13:39:41;;;;;;;1.10;1.00;;;17.60;99.90;;;;;;20863597;28;20638;-68
2021/04/16 13:49:47;;;;;;;0.53;0.50;;;16.90;99.90;;;;;;20864328;28;20614;-73
2021/04/16 13:59:51;;;;;;;1.27;1.03;;;16.50;99.90;;;;;;20809380;28;20201;-72
2021/04/16 14:09:54;;;;;;;0.83;0.50;;;16.20;99.90;;;;;;20857572;28;20352;-74
2021/04/16 14:20:02;;;;;;;1.23;1.13;;;16.10;99.90;;;;;;20856811;28;20200;-74
2021/04/16 14:30:13;;;;;;;0.60;0.60;;;16.30;99.90;;;;;;20856589;28;20303;-71
2021/04/16 14:40:20;;;;;;;1.50;0.93;;;16.20;99.90;;;;;;20858196;28;20189;-71
2021/04/16 14:50:25;;;;;;;0.90;0.90;;;16.40;99.90;;;;;;20858029;28;20221;-71
2021/04/16 15:00:34;;;;;;;1.00;0.77;;;16.20;99.90;;;;;;20855642;28;20197;-73
2021/04/16 15:10:41;;;;;;;0.87;0.87;;;15.80;99.90;;;;;;20856520;28;20233;-71
2021/04/16 15:20:47;;;;;;;0.57;0.57;;;15.60;99.90;;;;;;20857536;28;20213;-72
2021/04/16 15:30:56;;;;;;;1.57;0.63;;;15.00;99.90;;;;;;20856135;28;20662;-73
2021/04/16 15:51:28;;;;;;;0.63;0.63;;;17.20;99.90;;;;;;20829793;23;20250;-73
2021/04/16 16:01:35;;;;;;;1.13;1.03;;;16.00;99.90;;;;;;20606965;23;20323;-74
2021/04/16 16:11:41;;;;;;;0.50;0.50;;;15.30;99.90;;;;;;20537954;23;20551;-74
2021/04/16 16:21:53;;;;;;;1.33;1.13;;;14.60;99.90;;;;;;20541666;28;20226;-72
2021/04/16 16:32:17;;;;;;;1.30;1.13;;;14.10;99.90;;;;;;20543042;28;20604;-71
2021/04/16 16:42:26;;;;;;;1.57;0.73;;;14.00;99.90;;;;;;20555312;28;20581;-70
2021/04/16 16:52:39;;;;;;;1.13;0.53;;;13.40;99.90;;;;;;20538774;28;20656;-74
2021/04/16 17:02:43;;;;;;;1.53;1.00;;;13.30;99.90;;;;;;20504097;28;20404;-72
2021/04/16 17:23:13;;;;;;;2.33;1.17;;;13.20;99.90;;;;;;20458443;28;20280;-71
2021/04/16 17:33:29;;;;;;;0.30;0.30;;;13.00;99.90;;;;;;20563020;23;20247;-73
2021/04/16 17:43:39;;;;;;;2.47;0.87;;;12.60;99.90;;;;;;20569476;28;20704;-78
2021/04/16 17:53:59;;;;;;;0.30;0.30;;;12.00;99.90;;;;;;20534876;28;20689;-75
2021/04/16 18:04:11;;;;;;;0.43;0.43;;;12.00;99.90;;;;;;20581057;28;20231;-73
2021/04/16 18:14:26;;;;;;;5.93;0.93;;;11.80;99.90;;;;;;20592505;28;20198;-76
2021/04/16 18:24:54;;;;;;;1.23;0.73;;;11.30;99.90;;;;;;20584420;28;20585;-76
2021/04/16 18:34:57;;;;;;;0.37;0.37;;;11.10;99.90;;;;;;20613219;28;20231;-71
2021/04/16 18:45:04;;;;;;;0.30;0.30;;;11.00;99.90;;;;;;20613335;28;20221;-74
2021/04/16 18:55:33;;;;;;;2.87;1.47;;;10.70;99.90;;;;;;20559142;28;20357;-76
2021/04/16 19:05:47;;;;;;;0.73;0.70;;;10.40;99.90;;;;;;20573259;28;20240;-73
2021/04/16 19:15:50;;;;;;;1.20;1.10;;;10.20;99.90;;;;;;20602696;23;20893;-75
2021/04/16 19:25:58;;;;;;;0.77;0.67;;;10.00;99.90;;;;;;20531788;28;20238;-75
2021/04/16 19:36:26;;;;;;;1.70;1.60;;;10.00;99.90;;;;;;20604685;28;20208;-75
2021/04/16 19:46:35;;;;;;;0.20;0.17;;;10.00;99.90;;;;;;20607325;28;20230;-76
2021/04/16 20:18:02;;;;;;;1.13;0.77;;;9.70;99.90;;;;;;21010649;27;20711;-74
2021/04/16 20:29:15;;;;;;;0.70;0.50;;;9.50;99.90;;;;;;20988730;28;20232;-73
2021/04/16 20:39:21;;;;;;;0.40;0.40;;;9.20;99.90;;;;;;21009037;28;20230;-75
2021/04/16 20:49:45;;;;;;;2.70;1.30;;;9.20;99.90;;;;;;21009813;28;20228;-74
2021/04/16 21:00:05;;;;;;;0.40;0.40;;;9.20;99.90;;;;;;21016498;28;20190;-74
2021/04/16 21:10:14;;;;;;;2.13;1.60;;;9.20;99.90;;;;;;20973522;28;20314;-73
2021/04/16 21:20:37;;;;;;;6.20;1.40;;;9.30;99.90;;;;;;20992577;28;20641;-73
2021/04/16 21:30:40;;;;;;;0.27;0.27;;;9.10;99.90;;;;;;20883803;28;20225;-74
2021/04/16 21:40:55;;;;;;;0.53;0.53;;;9.30;99.90;;;;;;20907349;28;20298;-76
2021/04/16 21:51:48;;;;;;;0.90;0.73;;;9.60;99.90;;;;;;20946747;28;20234;-74
2021/04/16 22:14:30;;;;;;;0.53;0.53;;;9.40;99.90;;;;;;20873436;22;20248;-76
2021/04/16 22:24:58;;;;;;;1.23;1.13;;;9.30;99.90;;;;;;20868223;28;20200;-81
2021/04/16 22:35:07;;;;;;;1.60;1.50;;;8.80;99.90;;;;;;20866449;28;20338;-79
2021/04/16 22:45:19;;;;;;;0.20;0.20;;;8.70;99.90;;;;;;20867025;28;20216;-77
2021/04/16 22:55:32;;;;;;;0.57;0.37;;;8.60;99.90;;;;;;20864856;28;20367;-75
2021/04/16 23:05:38;;;;;;;2.00;0.60;;;8.60;99.90;;;;;;20918111;28;20295;-77
2021/04/16 23:15:42;;;;;;;0.43;0.43;;;8.70;99.90;;;;;;20945478;28;20236;-76
2021/04/16 23:26:28;;;;;;;0.33;0.33;;;8.90;99.90;;;;;;20942111;28;20190;-76
2021/04/16 23:47:27;;;;;;;0.20;0.10;;;9.10;99.90;;;;;;20875633;28;20193;-75
2021/04/16 23:58:05;;;;;;;3.77;1.27;;;8.90;99.90;;;;;;20862250;28;20662;-75
